sensor_id;sensor_type;location;lat;lon;timestamp;pressure;altitude;pressure_sealevel;temperature
43292;BMP280;28754;47.700;7.924;2023-04-03T03:35:37;91647.03;;;4.95
43292;BMP280;28754;47.700;7.924;2023-04-03T03:38:36;91657.28;;;4.89
43292;BMP280;28754;47.700;7.924;2023-04-03T03:41:34;91659.16;;;4.93
43292;BMP280;28754;47.700;7.924;2023-04-03T03:44:32;91651.13;;;4.96
43292;BMP280;28754;47.700;7.924;2023-04-03T03:47:29;91651.81;;;5.03
43292;BMP280;28754;47.700;7.924;2023-04-03T03:50:23;91656.31;;;5.01
43292;BMP280;28754;47.700;7.924;2023-04-03T03:53:16;91661.75;;;5.05
43292;BMP280;28754;47.700;7.924;2023-04-03T03:56:14;91644.09;;;5.10
43292;BMP280;28754;47.700;7.924;2023-04-03T03:59:03;91639.69;;;5.16
43292;BMP280;28754;47.700;7.924;2023-04-03T04:02:01;91655.81;;;5.33
43292;BMP280;28754;47.700;7.924;2023-04-03T04:04:48;91657.50;;;5.50
43292;BMP280;28754;47.700;7.924;2023-04-03T04:07:35;91655.91;;;5.49
43292;BMP280;28754;47.700;7.924;2023-04-03T04:10:22;91652.97;;;5.52
43292;BMP280;28754;47.700;7.924;2023-04-03T04:13:10;91646.78;;;5.48
43292;BMP280;28754;47.700;7.924;2023-04-03T04:15:57;91650.63;;;5.40
43292;BMP280;28754;47.700;7.924;2023-04-03T04:18:43;91642.47;;;5.26
43292;BMP280;28754;47.700;7.924;2023-04-03T04:21:31;91647.41;;;5.10
43292;BMP280;28754;47.700;7.924;2023-04-03T04:24:18;91647.69;;;5.02
43292;BMP280;28754;47.700;7.924;2023-04-03T04:27:05;91661.13;;;4.91
43292;BMP280;28754;47.700;7.924;2023-04-03T04:29:53;91665.19;;;4.81
43292;BMP280;28754;47.700;7.924;2023-04-03T04:32:41;91658.66;;;4.74
43292;BMP280;28754;47.700;7.924;2023-04-03T04:35:28;91666.56;;;4.66
43292;BMP280;28754;47.700;7.924;2023-04-03T04:38:15;91661.94;;;4.63
43292;BMP280;28754;47.700;7.924;2023-04-03T04:41:02;91662.78;;;4.57
43292;BMP280;28754;47.700;7.924;2023-04-03T04:43:50;91673.78;;;4.51
43292;BMP280;28754;47.700;7.924;2023-04-03T04:46:37;91674.66;;;4.45
43292;BMP280;28754;47.700;7.924;2023-04-03T04:49:25;91669.44;;;4.40
43292;BMP280;28754;47.700;7.924;2023-04-03T04:52:13;91681.16;;;4.41
43292;BMP280;28754;47.700;7.924;2023-04-03T04:55:01;91669.19;;;4.30
43292;BMP280;28754;47.700;7.924;2023-04-03T04:57:48;91671.00;;;4.23
43292;BMP280;28754;47.700;7.924;2023-04-03T05:00:39;91671.00;;;4.23
43292;BMP280;28754;47.700;7.924;2023-04-03T05:03:26;91695.03;;;4.21
43292;BMP280;28754;47.700;7.924;2023-04-03T05:06:13;91674.63;;;4.16
43292;BMP280;28754;47.700;7.924;2023-04-03T05:09:01;91673.50;;;4.12
43292;BMP280;28754;47.700;7.924;2023-04-03T05:11:51;91676.59;;;4.14
43292;BMP280;28754;47.700;7.924;2023-04-03T05:14:46;91673.69;;;4.10
43292;BMP280;28754;47.700;7.924;2023-04-03T05:17:37;91672.78;;;4.05
43292;BMP280;28754;47.700;7.924;2023-04-03T05:20:40;91684.34;;;4.01
43292;BMP280;28754;47.700;7.924;2023-04-03T05:23:47;91691.56;;;3.98
43292;BMP280;28754;47.700;7.924;2023-04-03T05:26:35;91695.38;;;3.89
43292;BMP280;28754;47.700;7.924;2023-04-03T05:29:28;91690.88;;;3.91
43292;BMP280;28754;47.700;7.924;2023-04-03T05:32:17;91697.69;;;3.90
43292;BMP280;28754;47.700;7.924;2023-04-03T05:35:08;91671.59;;;3.90
43292;BMP280;28754;47.700;7.924;2023-04-03T05:37:56;91693.63;;;3.89
43292;BMP280;28754;47.700;7.924;2023-04-03T05:40:44;91679.53;;;3.93
43292;BMP280;28754;47.700;7.924;2023-04-03T05:43:31;91697.19;;;4.00
43292;BMP280;28754;47.700;7.924;2023-04-03T05:46:19;91693.91;;;3.99
43292;BMP280;28754;47.700;7.924;2023-04-03T05:49:10;91678.06;;;3.86
43292;BMP280;28754;47.700;7.924;2023-04-03T05:51:58;91687.78;;;3.89
43292;BMP280;28754;47.700;7.924;2023-04-03T05:54:48;91690.88;;;3.91
43292;BMP280;28754;47.700;7.924;2023-04-03T05:57:41;91690.09;;;3.90
43292;BMP280;28754;47.700;7.924;2023-04-03T06:00:28;91691.63;;;3.91
43292;BMP280;28754;47.700;7.924;2023-04-03T06:03:21;91693.97;;;3.93
43292;BMP280;28754;47.700;7.924;2023-04-03T06:06:08;91685.75;;;3.97
43292;BMP280;28754;47.700;7.924;2023-04-03T06:08:58;91681.44;;;3.98
43292;BMP280;28754;47.700;7.924;2023-04-03T06:11:45;91686.31;;;3.99
43292;BMP280;28754;47.700;7.924;2023-04-03T06:14:32;91684.91;;;4.03
43292;BMP280;28754;47.700;7.924;2023-04-03T06:17:22;91681.81;;;4.01
43292;BMP280;28754;47.700;7.924;2023-04-03T06:20:10;91696.81;;;4.03
43292;BMP280;28754;47.700;7.924;2023-04-03T06:22:58;91690.72;;;4.04
43292;BMP280;28754;47.700;7.924;2023-04-03T06:25:48;91696.81;;;4.03
43292;BMP280;28754;47.700;7.924;2023-04-03T06:28:35;91690.47;;;3.94
43292;BMP280;28754;47.700;7.924;2023-04-03T06:31:22;91696.09;;;3.96
43292;BMP280;28754;47.700;7.924;2023-04-03T06:34:09;91688.56;;;3.89
43292;BMP280;28754;47.700;7.924;2023-04-03T06:36:55;91694.66;;;3.82
43292;BMP280;28754;47.700;7.924;2023-04-03T06:39:43;91690.16;;;3.84
43292;BMP280;28754;47.700;7.924;2023-04-03T06:42:30;91694.34;;;3.78
43292;BMP280;28754;47.700;7.924;2023-04-03T06:45:27;91705.63;;;3.76
43292;BMP280;28754;47.700;7.924;2023-04-03T06:48:14;91706.63;;;3.75
43292;BMP280;28754;47.700;7.924;2023-04-03T06:51:00;91696.50;;;3.75
43292;BMP280;28754;47.700;7.924;2023-04-03T06:53:49;91706.13;;;3.84
43292;BMP280;28754;47.700;7.924;2023-04-03T06:56:37;91693.84;;;3.88
43292;BMP280;28754;47.700;7.924;2023-04-03T06:59:24;91711.91;;;3.91
43292;BMP280;28754;47.700;7.924;2023-04-03T07:02:12;91698.69;;;3.89
43292;BMP280;28754;47.700;7.924;2023-04-03T07:05:52;91705.16;;;3.85
43292;BMP280;28754;47.700;7.924;2023-04-03T07:08:49;91700.22;;;3.90
43292;BMP280;28754;47.700;7.924;2023-04-03T07:11:35;91701.94;;;3.96
43292;BMP280;28754;47.700;7.924;2023-04-03T07:14:22;91709.16;;;3.93
43292;BMP280;28754;47.700;7.924;2023-04-03T07:17:27;91711.91;;;3.91
43292;BMP280;28754;47.700;7.924;2023-04-03T07:20:26;91702.97;;;3.89
43292;BMP280;28754;47.700;7.924;2023-04-03T07:23:27;91701.44;;;3.88
43292;BMP280;28754;47.700;7.924;2023-04-03T07:26:14;91708.09;;;3.82
43292;BMP280;28754;47.700;7.924;2023-04-03T07:29:04;91719.03;;;3.83
43292;BMP280;28754;47.700;7.924;2023-04-03T07:31:50;91719.50;;;3.74
43292;BMP280;28754;47.700;7.924;2023-04-03T07:34:37;91726.75;;;3.70
43292;BMP280;28754;47.700;7.924;2023-04-03T07:37:27;91734.75;;;3.67
43292;BMP280;28754;47.700;7.924;2023-04-03T07:40:14;91748.41;;;3.66
43292;BMP280;28754;47.700;7.924;2023-04-03T07:43:01;91734.47;;;3.75
43292;BMP280;28754;47.700;7.924;2023-04-03T07:45:58;91715.69;;;3.82
43292;BMP280;28754;47.700;7.924;2023-04-03T07:48:45;91720.06;;;3.93
43292;BMP280;28754;47.700;7.924;2023-04-03T07:51:32;91730.31;;;4.05
43292;BMP280;28754;47.700;7.924;2023-04-03T07:54:19;91725.50;;;3.97
43292;BMP280;28754;47.700;7.924;2023-04-03T07:57:05;91736.78;;;4.01
43292;BMP280;28754;47.700;7.924;2023-04-03T07:59:53;91736.78;;;4.01
43292;BMP280;28754;47.700;7.924;2023-04-03T08:02:40;91733.69;;;3.99
43292;BMP280;28754;47.700;7.924;2023-04-03T08:05:27;91749.19;;;4.09
43292;BMP280;28754;47.700;7.924;2023-04-03T08:08:18;91737.84;;;4.11
43292;BMP280;28754;47.700;7.924;2023-04-03T08:11:05;91736.00;;;4.18
43292;BMP280;28754;47.700;7.924;2023-04-03T08:13:54;91744.88;;;4.09
43292;BMP280;28754;47.700;7.924;2023-04-03T08:16:44;91726.06;;;3.99
43292;BMP280;28754;47.700;7.924;2023-04-03T08:19:31;91749.13;;;3.91
43292;BMP280;28754;47.700;7.924;2023-04-03T08:22:21;91740.97;;;3.89
43292;BMP280;28754;47.700;7.924;2023-04-03T08:25:09;91740.63;;;4.03
43292;BMP280;28754;47.700;7.924;2023-04-03T08:27:56;91740.00;;;4.08
43292;BMP280;28754;47.700;7.924;2023-04-03T08:30:52;91749.25;;;4.02
43292;BMP280;28754;47.700;7.924;2023-04-03T08:33:40;91764.78;;;4.06
43292;BMP280;28754;47.700;7.924;2023-04-03T08:36:29;91745.84;;;4.08
43292;BMP280;28754;47.700;7.924;2023-04-03T08:39:16;91742.91;;;4.11
43292;BMP280;28754;47.700;7.924;2023-04-03T08:45:46;91766.78;;;4.39
43292;BMP280;28754;47.700;7.924;2023-04-03T08:48:42;91770.34;;;4.32
43292;BMP280;28754;47.700;7.924;2023-04-03T08:51:31;91764.94;;;4.28
43292;BMP280;28754;47.700;7.924;2023-04-03T08:54:33;91768.97;;;4.36
43292;BMP280;28754;47.700;7.924;2023-04-03T08:57:41;91770.34;;;4.32
43292;BMP280;28754;47.700;7.924;2023-04-03T09:00:57;91776.50;;;4.24
43292;BMP280;28754;47.700;7.924;2023-04-03T09:03:48;91783.78;;;4.14
43292;BMP280;28754;47.700;7.924;2023-04-03T09:06:46;91778.09;;;4.19
43292;BMP280;28754;47.700;7.924;2023-04-03T09:09:42;91768.88;;;4.24
43292;BMP280;28754;47.700;7.924;2023-04-03T09:12:51;91766.41;;;4.36
43292;BMP280;28754;47.700;7.924;2023-04-03T09:15:46;91759.44;;;4.49
43292;BMP280;28754;47.700;7.924;2023-04-03T09:18:45;91776.09;;;4.45
43292;BMP280;28754;47.700;7.924;2023-04-03T09:21:39;91771.03;;;4.03
43292;BMP280;28754;47.700;7.924;2023-04-03T09:24:32;91803.78;;;3.80
43292;BMP280;28754;47.700;7.924;2023-04-03T09:27:19;91801.00;;;3.64
43292;BMP280;28754;47.700;7.924;2023-04-03T09:30:17;91798.09;;;3.85
43292;BMP280;28754;47.700;7.924;2023-04-03T09:33:05;91800.44;;;4.28
43292;BMP280;28754;47.700;7.924;2023-04-03T09:35:53;91791.97;;;4.70
43292;BMP280;28754;47.700;7.924;2023-04-03T09:42:31;91785.50;;;5.20
43292;BMP280;28754;47.700;7.924;2023-04-03T09:45:35;91786.19;;;5.39
43292;BMP280;28754;47.700;7.924;2023-04-03T09:48:26;91806.00;;;5.48
43292;BMP280;28754;47.700;7.924;2023-04-03T09:51:39;91784.28;;;5.23
43292;BMP280;28754;47.700;7.924;2023-04-03T09:54:43;91792.22;;;4.97
43292;BMP280;28754;47.700;7.924;2023-04-03T09:57:42;91798.19;;;4.74
43292;BMP280;28754;47.700;7.924;2023-04-03T10:00:43;91773.97;;;4.60
43292;BMP280;28754;47.700;7.924;2023-04-03T10:03:40;91777.31;;;4.72
43292;BMP280;28754;47.700;7.924;2023-04-03T10:06:46;91785.69;;;4.90
43292;BMP280;28754;47.700;7.924;2023-04-03T10:09:36;91784.06;;;4.95
43292;BMP280;28754;47.700;7.924;2023-04-03T10:12:29;91777.44;;;4.77
43292;BMP280;28754;47.700;7.924;2023-04-03T10:15:17;91774.75;;;4.89
43292;BMP280;28754;47.700;7.924;2023-04-03T10:18:37;91771.25;;;4.90
43292;BMP280;28754;47.700;7.924;2023-04-03T10:21:53;91770.56;;;5.12
43292;BMP280;28754;47.700;7.924;2023-04-03T10:25:31;91785.38;;;5.15
43292;BMP280;28754;47.700;7.924;2023-04-03T10:28:45;91790.69;;;4.96
43292;BMP280;28754;47.700;7.924;2023-04-03T10:32:02;91775.91;;;4.76
43292;BMP280;28754;47.700;7.924;2023-04-03T10:42:47;91772.94;;;5.37
43292;BMP280;28754;47.700;7.924;2023-04-03T10:56:38;91763.78;;;5.76
43292;BMP280;28754;47.700;7.924;2023-04-03T11:02:37;91757.28;;;5.40
43292;BMP280;28754;47.700;7.924;2023-04-03T11:05:40;91750.25;;;5.53
43292;BMP280;28754;47.700;7.924;2023-04-03T11:08:50;91754.00;;;5.50
43292;BMP280;28754;47.700;7.924;2023-04-03T11:11:42;91762.38;;;5.40
43292;BMP280;28754;47.700;7.924;2023-04-03T11:14:36;91755.72;;;5.39
43292;BMP280;28754;47.700;7.924;2023-04-03T11:17:38;91750.88;;;5.37
43292;BMP280;28754;47.700;7.924;2023-04-03T11:20:33;91752.19;;;5.28
43292;BMP280;28754;47.700;7.924;2023-04-03T11:23:35;91741.25;;;5.28
43292;BMP280;28754;47.700;7.924;2023-04-03T11:26:30;91734.44;;;5.62
43292;BMP280;28754;47.700;7.924;2023-04-03T11:29:29;91739.16;;;5.99
43292;BMP280;28754;47.700;7.924;2023-04-03T11:32:52;91712.09;;;5.93
43292;BMP280;28754;47.700;7.924;2023-04-03T11:35:51;91735.06;;;5.87
43292;BMP280;28754;47.700;7.924;2023-04-03T11:38:45;91723.38;;;5.86
43292;BMP280;28754;47.700;7.924;2023-04-03T11:41:33;91740.03;;;5.93
43292;BMP280;28754;47.700;7.924;2023-04-03T11:44:38;91722.16;;;5.88
43292;BMP280;28754;47.700;7.924;2023-04-03T11:47:50;91741.78;;;6.15
43292;BMP280;28754;47.700;7.924;2023-04-03T11:53:33;91724.75;;;6.39
43292;BMP280;28754;47.700;7.924;2023-04-03T12:02:00;91727.09;;;6.06
43292;BMP280;28754;47.700;7.924;2023-04-03T12:05:38;91728.44;;;5.86
43292;BMP280;28754;47.700;7.924;2023-04-03T12:08:44;91733.28;;;5.87
43292;BMP280;28754;47.700;7.924;2023-04-03T12:11:33;91721.16;;;5.78
43292;BMP280;28754;47.700;7.924;2023-04-03T12:14:24;91718.94;;;5.93
43292;BMP280;28754;47.700;7.924;2023-04-03T12:17:33;91741.47;;;6.01
43292;BMP280;28754;47.700;7.924;2023-04-03T12:20:55;91739.50;;;5.91
43292;BMP280;28754;47.700;7.924;2023-04-03T12:24:23;91732.38;;;5.71
43292;BMP280;28754;47.700;7.924;2023-04-03T12:27:26;91735.56;;;5.66
43292;BMP280;28754;47.700;7.924;2023-04-03T12:30:21;91716.34;;;5.59
43292;BMP280;28754;47.700;7.924;2023-04-03T12:33:46;91720.00;;;5.63
43292;BMP280;28754;47.700;7.924;2023-04-03T12:36:54;91736.22;;;5.50
43292;BMP280;28754;47.700;7.924;2023-04-03T12:46:18;91752.44;;;5.49
43292;BMP280;28754;47.700;7.924;2023-04-03T12:49:29;91730.59;;;5.48
43292;BMP280;28754;47.700;7.924;2023-04-03T12:52:43;91734.03;;;5.54
43292;BMP280;28754;47.700;7.924;2023-04-03T12:55:32;91724.28;;;5.51
43292;BMP280;28754;47.700;7.924;2023-04-03T12:58:27;91724.19;;;5.46
43292;BMP280;28754;47.700;7.924;2023-04-03T13:01:23;91715.88;;;5.39
43292;BMP280;28754;47.700;7.924;2023-04-03T13:04:29;91713.91;;;5.41
43292;BMP280;28754;47.700;7.924;2023-04-03T13:07:33;91719.41;;;5.38
43292;BMP280;28754;47.700;7.924;2023-04-03T13:10:26;91716.09;;;5.38
43292;BMP280;28754;47.700;7.924;2023-04-03T13:13:16;91728.34;;;5.41
43292;BMP280;28754;47.700;7.924;2023-04-03T13:16:11;91721.66;;;5.57
43292;BMP280;28754;47.700;7.924;2023-04-03T13:19:00;91704.41;;;5.59
43292;BMP280;28754;47.700;7.924;2023-04-03T13:22:02;91720.13;;;5.68
43292;BMP280;28754;47.700;7.924;2023-04-03T13:25:16;91722.19;;;5.71
43292;BMP280;28754;47.700;7.924;2023-04-03T13:28:07;91729.16;;;5.52
43292;BMP280;28754;47.700;7.924;2023-04-03T13:35:36;91739.50;;;5.28
43292;BMP280;28754;47.700;7.924;2023-04-03T13:38:33;91711.22;;;5.25
43292;BMP280;28754;47.700;7.924;2023-04-03T13:41:40;91712.44;;;5.34
43292;BMP280;28754;47.700;7.924;2023-04-03T13:44:45;91689.59;;;5.34
43292;BMP280;28754;47.700;7.924;2023-04-03T13:47:46;91698.78;;;5.35
43292;BMP280;28754;47.700;7.924;2023-04-03T13:50:33;91698.88;;;5.40
43292;BMP280;28754;47.700;7.924;2023-04-03T13:53:20;91704.53;;;5.64
43292;BMP280;28754;47.700;7.924;2023-04-03T13:56:36;91695.47;;;5.68
43292;BMP280;28754;47.700;7.924;2023-04-03T13:59:34;91698.59;;;5.81
43292;BMP280;28754;47.700;7.924;2023-04-03T14:02:32;91693.88;;;5.74
43292;BMP280;28754;47.700;7.924;2023-04-03T14:05:19;91700.28;;;5.76
43292;BMP280;28754;47.700;7.924;2023-04-03T14:08:07;91678.84;;;5.72
43292;BMP280;28754;47.700;7.924;2023-04-03T14:14:11;91687.25;;;5.84
43292;BMP280;28754;47.700;7.924;2023-04-03T14:17:16;91686.88;;;5.92
43292;BMP280;28754;47.700;7.924;2023-04-03T14:20:24;91678.72;;;5.90
43292;BMP280;28754;47.700;7.924;2023-04-03T14:23:23;91682.72;;;5.86
43292;BMP280;28754;47.700;7.924;2023-04-03T14:26:32;91680.56;;;5.94
43292;BMP280;28754;47.700;7.924;2023-04-03T14:29:20;91682.59;;;5.92
43292;BMP280;28754;47.700;7.924;2023-04-03T14:32:17;91674.53;;;5.84
43292;BMP280;28754;47.700;7.924;2023-04-03T14:35:07;91679.38;;;5.85
43292;BMP280;28754;47.700;7.924;2023-04-03T14:37:57;91667.00;;;5.89
43292;BMP280;28754;47.700;7.924;2023-04-03T14:40:43;91672.84;;;5.89
43292;BMP280;28754;47.700;7.924;2023-04-03T14:43:30;91675.75;;;5.93
43292;BMP280;28754;47.700;7.924;2023-04-03T14:46:25;91683.91;;;5.95
43292;BMP280;28754;47.700;7.924;2023-04-03T14:49:18;91690.44;;;5.91
43292;BMP280;28754;47.700;7.924;2023-04-03T15:04:15;91678.78;;;5.49
43292;BMP280;28754;47.700;7.924;2023-04-03T15:28:50;91686.41;;;5.49
43292;BMP280;28754;47.700;7.924;2023-04-03T15:35:32;91672.81;;;5.33
43292;BMP280;28754;47.700;7.924;2023-04-03T15:38:26;91684.22;;;5.42
43292;BMP280;28754;47.700;7.924;2023-04-03T15:41:34;91668.84;;;5.37
43292;BMP280;28754;47.700;7.924;2023-04-03T15:44:43;91666.53;;;5.46
43292;BMP280;28754;47.700;7.924;2023-04-03T15:47:33;91673.38;;;5.46
43292;BMP280;28754;47.700;7.924;2023-04-03T15:50:20;91678.66;;;5.22
43292;BMP280;28754;47.700;7.924;2023-04-03T15:58:00;91677.31;;;5.19
43292;BMP280;28754;47.700;7.924;2023-04-03T16:05:30;91684.22;;;5.42
43292;BMP280;28754;47.700;7.924;2023-04-03T16:45:28;91687.47;;;4.50
43292;BMP280;28754;47.700;7.924;2023-04-03T16:49:15;91687.66;;;4.66
43292;BMP280;28754;47.700;7.924;2023-04-03T16:52:05;91691.69;;;4.56
43292;BMP280;28754;47.700;7.924;2023-04-03T16:54:52;91685.44;;;4.70
43292;BMP280;28754;47.700;7.924;2023-04-03T16:57:41;91682.81;;;4.76
43292;BMP280;28754;47.700;7.924;2023-04-03T17:00:32;91718.41;;;4.70
43292;BMP280;28754;47.700;7.924;2023-04-03T17:03:20;91695.13;;;4.61
43292;BMP280;28754;47.700;7.924;2023-04-03T17:06:11;91679.56;;;4.58
43292;BMP280;28754;47.700;7.924;2023-04-03T17:09:06;91690.53;;;4.70
43292;BMP280;28754;47.700;7.924;2023-04-03T17:11:55;91688.06;;;4.92
43292;BMP280;28754;47.700;7.924;2023-04-03T17:14:43;91681.88;;;4.88
43292;BMP280;28754;47.700;7.924;2023-04-03T17:17:31;91685.06;;;4.84
43292;BMP280;28754;47.700;7.924;2023-04-03T17:20:18;91692.88;;;4.82
43292;BMP280;28754;47.700;7.924;2023-04-03T17:27:26;91679.22;;;4.54
43292;BMP280;28754;47.700;7.924;2023-04-03T17:30:13;91690.78;;;4.50
43292;BMP280;28754;47.700;7.924;2023-04-03T17:32:59;91696.31;;;4.59
43292;BMP280;28754;47.700;7.924;2023-04-03T17:35:46;91681.78;;;4.66
43292;BMP280;28754;47.700;7.924;2023-04-03T17:38:33;91680.72;;;4.73
43292;BMP280;28754;47.700;7.924;2023-04-03T17:41:20;91685.56;;;4.75
43292;BMP280;28754;47.700;7.924;2023-04-03T17:44:07;91680.81;;;4.67
43292;BMP280;28754;47.700;7.924;2023-04-03T17:46:54;91677.69;;;4.53
43292;BMP280;28754;47.700;7.924;2023-04-03T17:49:41;91686.63;;;4.38
43292;BMP280;28754;47.700;7.924;2023-04-03T17:52:27;91681.84;;;4.12
43292;BMP280;28754;47.700;7.924;2023-04-03T17:55:14;91680.34;;;3.94
43292;BMP280;28754;47.700;7.924;2023-04-03T17:58:03;91685.03;;;3.90
43292;BMP280;28754;47.700;7.924;2023-04-03T18:00:54;91688.50;;;3.96
43292;BMP280;28754;47.700;7.924;2023-04-03T18:08:14;91694.16;;;3.74
43292;BMP280;28754;47.700;7.924;2023-04-03T18:47:10;91677.25;;;3.50
43292;BMP280;28754;47.700;7.924;2023-04-03T18:50:40;91677.72;;;3.41
43292;BMP280;28754;47.700;7.924;2023-04-03T18:53:27;91678.34;;;3.36
43292;BMP280;28754;47.700;7.924;2023-04-03T18:56:17;91703.50;;;3.31
43292;BMP280;28754;47.700;7.924;2023-04-03T18:59:53;91672.84;;;3.21
43292;BMP280;28754;47.700;7.924;2023-04-03T19:07:09;91670.59;;;3.07
43292;BMP280;28754;47.700;7.924;2023-04-03T19:10:34;91677.88;;;2.97
43292;BMP280;28754;47.700;7.924;2023-04-03T19:14:30;91689.47;;;2.80
43292;BMP280;28754;47.700;7.924;2023-04-03T19:17:56;91688.06;;;2.84
43292;BMP280;28754;47.700;7.924;2023-04-03T19:21:24;91660.72;;;2.75
43292;BMP280;28754;47.700;7.924;2023-04-03T19:24:20;91673.13;;;2.83
43292;BMP280;28754;47.700;7.924;2023-04-03T19:27:07;91687.53;;;2.82
43292;BMP280;28754;47.700;7.924;2023-04-03T19:29:54;91654.22;;;2.85
43292;BMP280;28754;47.700;7.924;2023-04-03T19:32:43;91649.41;;;2.77
43292;BMP280;28754;47.700;7.924;2023-04-03T19:35:39;91680.66;;;2.89
43292;BMP280;28754;47.700;7.924;2023-04-03T19:38:27;91694.13;;;2.83
43292;BMP280;28754;47.700;7.924;2023-04-03T19:41:18;91696.72;;;2.71
43292;BMP280;28754;47.700;7.924;2023-04-03T19:44:06;91662.78;;;2.54
43292;BMP280;28754;47.700;7.924;2023-04-03T19:46:53;91705.75;;;2.54
43292;BMP280;28754;47.700;7.924;2023-04-03T19:49:41;91705.78;;;2.47
43292;BMP280;28754;47.700;7.924;2023-04-03T19:52:30;91684.38;;;2.50
43292;BMP280;28754;47.700;7.924;2023-04-03T19:55:17;91677.22;;;2.47
43292;BMP280;28754;47.700;7.924;2023-04-03T19:58:04;91712.19;;;2.50
43292;BMP280;28754;47.700;7.924;2023-04-03T20:00:51;91702.91;;;2.44
43292;BMP280;28754;47.700;7.924;2023-04-03T20:03:40;91683.53;;;2.32
43292;BMP280;28754;47.700;7.924;2023-04-03T20:06:28;91682.38;;;2.28
43292;BMP280;28754;47.700;7.924;2023-04-03T20:09:15;91668.78;;;2.22
43292;BMP280;28754;47.700;7.924;2023-04-03T20:12:06;91663.72;;;2.22
43292;BMP280;28754;47.700;7.924;2023-04-03T20:14:54;91695.22;;;2.20
43292;BMP280;28754;47.700;7.924;2023-04-03T20:17:44;91679.72;;;2.16
43292;BMP280;28754;47.700;7.924;2023-04-03T20:20:30;91666.88;;;2.11
43292;BMP280;28754;47.700;7.924;2023-04-03T20:23:17;91650.19;;;2.10
43292;BMP280;28754;47.700;7.924;2023-04-03T20:26:08;91668.66;;;2.04
43292;BMP280;28754;47.700;7.924;2023-04-03T20:28:58;91636.06;;;1.97
43292;BMP280;28754;47.700;7.924;2023-04-03T20:31:45;91664.22;;;2.00
43292;BMP280;28754;47.700;7.924;2023-04-03T20:34:39;91639.75;;;1.94
43292;BMP280;28754;47.700;7.924;2023-04-03T20:37:26;91668.13;;;1.96
43292;BMP280;28754;47.700;7.924;2023-04-03T20:40:14;91696.13;;;1.95
43292;BMP280;28754;47.700;7.924;2023-04-03T20:43:06;91670.63;;;2.03
43292;BMP280;28754;47.700;7.924;2023-04-03T20:45:53;91675.47;;;2.10
43292;BMP280;28754;47.700;7.924;2023-04-03T20:48:41;91704.81;;;2.05
43292;BMP280;28754;47.700;7.924;2023-04-03T20:51:35;91632.34;;;2.05
43292;BMP280;28754;47.700;7.924;2023-04-03T20:54:22;91697.81;;;2.07
43292;BMP280;28754;47.700;7.924;2023-04-03T20:57:10;91673.88;;;2.09
43292;BMP280;28754;47.700;7.924;2023-04-03T20:59:57;91654.09;;;2.06
43292;BMP280;28754;47.700;7.924;2023-04-03T21:02:45;91653.28;;;2.12
43292;BMP280;28754;47.700;7.924;2023-04-03T21:05:34;91662.06;;;2.10
43292;BMP280;28754;47.700;7.924;2023-04-03T21:19:26;91647.03;;;2.21
43292;BMP280;28754;47.700;7.924;2023-04-03T21:22:05;91646.88;;;2.16
43292;BMP280;28754;47.700;7.924;2023-04-03T21:24:52;91642.78;;;2.15
43292;BMP280;28754;47.700;7.924;2023-04-03T21:27:39;91654.22;;;2.18
43292;BMP280;28754;47.700;7.924;2023-04-03T21:30:26;91659.88;;;2.13
43292;BMP280;28754;47.700;7.924;2023-04-03T21:33:12;91651.97;;;2.10
43292;BMP280;28754;47.700;7.924;2023-04-03T21:35:59;91655.81;;;2.12
43292;BMP280;28754;47.700;7.924;2023-04-03T21:38:45;91653.28;;;2.12
43292;BMP280;28754;47.700;7.924;2023-04-03T21:41:32;91652.34;;;2.07
43292;BMP280;28754;47.700;7.924;2023-04-03T21:44:20;91635.88;;;1.98
43292;BMP280;28754;47.700;7.924;2023-04-03T21:47:08;91636.31;;;1.89
43292;BMP280;28754;47.700;7.924;2023-04-03T21:49:54;91639.41;;;1.91
43292;BMP280;28754;47.700;7.924;2023-04-03T21:52:41;91628.91;;;1.94
43292;BMP280;28754;47.700;7.924;2023-04-03T21:55:28;91638.22;;;1.93
43292;BMP280;28754;47.700;7.924;2023-04-03T21:58:15;91646.41;;;1.89
43292;BMP280;28754;47.700;7.924;2023-04-03T22:01:13;91633.59;;;1.77
43292;BMP280;28754;47.700;7.924;2023-04-03T22:04:00;91621.41;;;1.74
43292;BMP280;28754;47.700;7.924;2023-04-03T22:06:49;91643.94;;;1.76
43292;BMP280;28754;47.700;7.924;2023-04-03T22:09:36;91619.66;;;1.69
43292;BMP280;28754;47.700;7.924;2023-04-03T22:12:23;91624.72;;;1.62
43292;BMP280;28754;47.700;7.924;2023-04-03T22:15:09;91623.78;;;1.57
43292;BMP280;28754;47.700;7.924;2023-04-03T22:17:56;91629.81;;;1.49
43292;BMP280;28754;47.700;7.924;2023-04-03T22:20:44;91618.22;;;1.42
43292;BMP280;28754;47.700;7.924;2023-04-03T22:23:30;91623.25;;;1.36
43292;BMP280;28754;47.700;7.924;2023-04-03T22:26:18;91620.16;;;1.34
43292;BMP280;28754;47.700;7.924;2023-04-03T22:29:04;91619.41;;;1.33
43292;BMP280;28754;47.700;7.924;2023-04-03T22:31:51;91618.59;;;1.33
43292;BMP280;28754;47.700;7.924;2023-04-03T22:34:38;91600.75;;;1.34
43292;BMP280;28754;47.700;7.924;2023-04-03T22:37:26;91623.63;;;1.33
43292;BMP280;28754;47.700;7.924;2023-04-03T22:40:13;91618.81;;;1.31
43292;BMP280;28754;47.700;7.924;2023-04-03T22:42:59;91629.84;;;1.36
43292;BMP280;28754;47.700;7.924;2023-04-03T22:45:49;91616.28;;;1.37
43292;BMP280;28754;47.700;7.924;2023-04-03T22:48:36;91614.34;;;1.39
43292;BMP280;28754;47.700;7.924;2023-04-03T22:51:27;91618.81;;;1.37
43292;BMP280;28754;47.700;7.924;2023-04-03T22:54:14;91623.06;;;1.37
43292;BMP280;28754;47.700;7.924;2023-04-03T22:57:00;91615.88;;;1.40
43292;BMP280;28754;47.700;7.924;2023-04-03T22:59:47;91608.09;;;1.42
43292;BMP280;28754;47.700;7.924;2023-04-03T23:02:34;91618.22;;;1.42
43292;BMP280;28754;47.700;7.924;2023-04-03T23:05:21;91610.47;;;1.37
43292;BMP280;28754;47.700;7.924;2023-04-03T23:08:08;91586.41;;;1.28
43292;BMP280;28754;47.700;7.924;2023-04-03T23:10:58;91615.91;;;1.28
43292;BMP280;28754;47.700;7.924;2023-04-03T23:13:44;91606.03;;;1.26
43292;BMP280;28754;47.700;7.924;2023-04-03T23:16:31;91583.88;;;1.22
43292;BMP280;28754;47.700;7.924;2023-04-03T23:19:18;91614.16;;;1.22
43292;BMP280;28754;47.700;7.924;2023-04-03T23:22:05;91603.53;;;1.20
43292;BMP280;28754;47.700;7.924;2023-04-03T23:24:51;91612.81;;;1.13
43292;BMP280;28754;47.700;7.924;2023-04-03T23:27:38;91611.09;;;1.07
43292;BMP280;28754;47.700;7.924;2023-04-03T23:30:25;91617.50;;;1.03
43292;BMP280;28754;47.700;7.924;2023-04-03T23:33:11;91595.41;;;0.99
43292;BMP280;28754;47.700;7.924;2023-04-03T23:36:04;91600.06;;;0.95
43292;BMP280;28754;47.700;7.924;2023-04-03T23:38:55;91595.00;;;0.95
43292;BMP280;28754;47.700;7.924;2023-04-03T23:41:42;91600.63;;;0.91
43292;BMP280;28754;47.700;7.924;2023-04-03T23:44:28;91593.47;;;0.88